Teruhou Maru No.22 — JD3202 — position and weather

sailwx.info

Track history (hours):
 
Tides and Currents Weather Stations Pressure Air Temp Water Temp Dewpoint Dewpoint Depression Visibility Wind Speed Wind Dir Waves Ship Positions

Teruhou Maru No.22

Last reported at 2015-Feb-28 11:33 UTC. Time now 2015-Mar-02 03:42 UTC.
Position N 34°08' E 135°00'.

Length 76 m; draft 4 m.

Type: Cargo ship. MMSI: 431002552.

Date/timePositionNaut miles runAvg speedWind from/ knotsBaromVisibWave heightAir tempDewpointWater temp
2015-Feb-28 11:33N 34°08' E 135°00'1312.6
2015-Feb-28 10:33N 34°20' E 134°59'1111.6
2015-Feb-28 09:33N 34°31' E 135°03'9 7.5
2015-Feb-28 08:23N 34°37' E 134°54'6 0.4
2015-Feb-27 18:05N 34°40' E 134°49'713.1
2015-Feb-27 17:33N 34°37' E 134°57'10 9.8
2015-Feb-27 16:33N 34°29' E 135°04'2412.0
2015-Feb-27 14:31N 34°05' E 135°01'  
2015-Feb-25 06:29N 34°01' E 135°02'1112.4
2015-Feb-25 05:33N 34°13' E 135°00'1111.3
2015-Feb-25 04:33N 34°24' E 134°60'1111.0
2015-Feb-25 03:33N 34°35' E 135°03'10 0.9
2015-Feb-24 16:32N 34°39' E 134°52'1212.2
2015-Feb-24 15:33N 34°33' E 135°05'  
Track history (hours):
 
Tides and Currents Weather Stations Pressure Air Temp Water Temp Dewpoint Dewpoint Depression Visibility Wind Speed Wind Dir Waves Ship Positions

Teruhou Maru No.22

Last reported at 2015-Feb-28 11:33 UTC. Time now 2015-Mar-02 03:42 UTC.
Position N 34°08' E 135°00'.

Length 76 m; draft 4 m.

Type: Cargo ship. MMSI: 431002552.

Date/timePositionNaut miles runAvg speedWind from/ knotsBaromVisibWave heightAir tempDewpointWater temp
2015-Feb-28 11:33N 34°08' E 135°00'1312.6
2015-Feb-28 10:33N 34°20' E 134°59'1111.6
2015-Feb-28 09:33N 34°31' E 135°03'9 7.5
2015-Feb-28 08:23N 34°37' E 134°54'6 0.4
2015-Feb-27 18:05N 34°40' E 134°49'713.1
2015-Feb-27 17:33N 34°37' E 134°57'10 9.8
2015-Feb-27 16:33N 34°29' E 135°04'2412.0
2015-Feb-27 14:31N 34°05' E 135°01'  
2015-Feb-25 06:29N 34°01' E 135°02'1112.4
2015-Feb-25 05:33N 34°13' E 135°00'1111.3
2015-Feb-25 04:33N 34°24' E 134°60'1111.0
2015-Feb-25 03:33N 34°35' E 135°03'10 0.9
2015-Feb-24 16:32N 34°39' E 134°52'1212.2
2015-Feb-24 15:33N 34°33' E 135°05'  

Dump ship's entire track history